Capitol, MT

11:25 AM MST on February 13, 2016 (GMT -0700)
Box Elder Valley | | Change Station
CLOSE
Current Station
Personal Weather Station
Location: Ekalaka, MT
Elevation: 3136 ft
Nearby Weather Stations

Elev 3136 ft 45.74 °N, 104.33 °W | Updated 25 minutes ago

Overcast
Overcast
32.9 °F
Feels Like 33 °F
N
2.0
Wind Variable Wind from WSW
Gusts 6.0 mph

Today
High -- | Low -- °F
--% Chance of Precip.
Yesterday
High -- | Low -- °F
Precip. -- in
Pressure 29.86 in
Visibility 10.0 miles
Clouds Clear
Windchill 33 °F
Dew Point 28 °F
Humidity 82%
Rainfall 0.00 in
Snow Depth Not available.
7:02 AM 5:20 PM
Waxing Crescent, 33% visible
METAR KW43 131815Z AUTO 22004KT 10SM CLR 07/00 A2986 RMK AO2
Pressure 29.86 in
Visibility 10.0 miles
Clouds Clear
Windchill 33 °F
Dew Point 28 °F
Humidity 82%
Rainfall 0.00 in
Snow Depth Not available.
7:02 AM 5:20 PM
Waxing Crescent, 33% visible
METAR KW43 131815Z AUTO 22004KT 10SM CLR 07/00 A2986 RMK AO2

10-Day Weather Forecast

Almanac

Astronomy

Feb. 13, 2016 Rise Set
Actual Time
Civil Twilight
Nautical Twilight
Astronomical Twilight
Moon
Length of Visible Light
Length of Day
Tomorrow will be .
, % of the Moon is Illuminated

Today's Extremes

State Highs State Lows

Community

WunderPhotos

Upload Photos

1,892,632 photos uploaded!

WunderBlog® & News

Nearby

Air Quality

  Air Quality AQ Index Pollutant
Not available.

Snow Depth

Station Depth Elevation

Earthquake Activity

City Distance Mag. Time & Date
Minimum magnitude displayed is 2.5.

Coastal Water Temperatures

Place Temperature

Stations

Nearby Weather Stations

Station Location Temp. Windchill Dew Point Humidity Wind Precip. Elev Updated Type
                   

Watches & Warnings

There are currently no watches in effect.